createdAt,value
2023-03-06T00:01:14.352Z,10.00
2023-03-06T00:03:42.685Z,10.80
2023-03-06T00:06:10.110Z,9.33
2023-03-06T00:08:36.633Z,10.50
2023-03-06T00:11:03.209Z,10.00
2023-03-06T00:13:32.375Z,8.83
2023-03-06T00:16:01.640Z,9.50
2023-03-06T00:18:28.131Z,9.00
2023-03-06T00:20:56.405Z,9.80
2023-03-06T00:23:22.960Z,10.00
2023-03-06T00:28:36.196Z,5.33
2023-03-06T00:31:03.431Z,10.00
2023-03-06T00:33:31.700Z,9.80
2023-03-06T00:36:00.918Z,10.00
2023-03-06T00:38:27.359Z,8.00
2023-03-06T00:43:50.762Z,9.00
2023-03-06T00:46:17.254Z,9.50
2023-03-06T00:48:43.775Z,9.50
2023-03-06T00:51:13.944Z,10.60
2023-03-06T00:53:40.538Z,8.50
2023-03-06T00:58:51.053Z,11.00
2023-03-06T01:01:19.447Z,10.00
2023-03-06T01:03:48.700Z,9.33
2023-03-06T01:06:15.073Z,7.67
2023-03-06T01:08:41.573Z,10.00
2023-03-06T01:14:03.605Z,10.00
2023-03-06T01:16:30.109Z,10.50
2023-03-06T01:18:56.533Z,12.00
2023-03-06T01:21:24.867Z,11.00
2023-03-06T01:23:51.278Z,9.00
2023-03-06T01:29:04.655Z,10.00
2023-03-06T01:31:31.950Z,10.00
2023-03-06T01:34:00.288Z,9.20
2023-03-06T01:36:27.511Z,6.50
2023-03-06T01:38:55.818Z,9.00
2023-03-06T01:44:06.298Z,10.00
2023-03-06T01:46:32.739Z,10.00
2023-03-06T01:49:00.121Z,10.00
2023-03-06T01:51:28.432Z,10.00
2023-03-06T01:53:54.930Z,10.00
2023-03-06T01:59:18.177Z,9.33
2023-03-06T02:01:44.669Z,8.50
2023-03-06T02:04:13.818Z,9.00
2023-03-06T02:06:40.271Z,8.00
2023-03-06T02:09:06.772Z,10.00
2023-03-06T02:14:19.322Z,9.00
2023-03-06T02:16:45.772Z,9.00
2023-03-06T02:19:14.087Z,9.40
2023-03-06T02:21:40.490Z,7.00
2023-03-06T02:24:06.928Z,9.00
2023-03-06T02:29:19.837Z,9.00
2023-03-06T02:31:47.039Z,7.50
2023-03-06T02:34:14.287Z,9.33
2023-03-06T02:36:40.738Z,8.50
2023-03-06T02:39:09.985Z,9.33
2023-03-06T02:44:20.367Z,8.00
2023-03-06T02:46:48.672Z,9.60
2023-03-06T02:49:15.102Z,9.50
2023-03-06T02:51:44.271Z,9.00
2023-03-06T02:54:12.554Z,9.40
2023-03-06T02:59:35.700Z,9.00
2023-03-06T03:02:03.019Z,8.00
2023-03-06T03:04:31.374Z,9.20
2023-03-06T03:07:00.562Z,9.67
2023-03-06T03:09:28.849Z,8.00
2023-03-06T03:14:42.069Z,7.25
2023-03-06T03:17:08.485Z,8.00
2023-03-06T03:19:34.862Z,6.33
2023-03-06T03:22:03.988Z,8.17
2023-03-06T03:24:32.330Z,8.40
2023-03-06T03:29:43.871Z,8.00
2023-03-06T03:32:11.201Z,6.75
2023-03-06T03:34:40.372Z,8.50
2023-03-06T03:37:06.771Z,8.00
2023-03-06T03:39:33.288Z,10.00
2023-03-06T03:44:46.514Z,8.50
2023-03-06T03:47:12.968Z,8.50
2023-03-06T03:49:42.130Z,7.00
2023-03-06T03:52:10.400Z,8.00
2023-03-06T03:54:38.664Z,8.40
2023-03-06T03:57:07.001Z,7.60
2023-03-06T03:59:33.417Z,8.00
2023-03-06T04:02:02.646Z,6.17
2023-03-06T04:04:29.924Z,7.75
2023-03-06T04:06:56.339Z,9.00
2023-03-06T04:09:22.687Z,4.00
2023-03-06T04:11:51.818Z,6.50
2023-03-06T04:14:18.378Z,9.00
2023-03-06T04:16:47.545Z,8.00
2023-03-06T04:19:16.705Z,9.50
2023-03-06T04:21:43.961Z,7.50
2023-03-06T04:24:10.353Z,7.00
2023-03-06T04:26:36.831Z,8.50
2023-03-06T04:29:06.069Z,7.50
2023-03-06T04:31:33.346Z,9.00
2023-03-06T04:33:59.815Z,7.50
2023-03-06T04:36:28.984Z,8.00
2023-03-06T04:38:55.450Z,9.00
2023-03-06T04:41:23.783Z,9.40
2023-03-06T04:43:51.402Z,9.00
2023-03-06T04:46:20.551Z,7.00
2023-03-06T04:48:48.847Z,8.40
2023-03-06T04:51:18.118Z,8.00
2023-03-06T04:53:44.573Z,8.00
2023-03-06T04:56:11.009Z,9.00
2023-03-06T04:58:37.441Z,8.00
2023-03-06T05:01:03.882Z,6.00
2023-03-06T05:03:30.388Z,8.00
2023-03-06T05:05:56.782Z,8.50
2023-03-06T05:08:23.178Z,7.00
2023-03-06T05:10:49.614Z,10.00
2023-03-06T05:13:16.121Z,9.00
2023-03-06T05:18:27.340Z,8.00
2023-03-06T05:20:55.603Z,8.00
2023-03-06T05:23:21.998Z,9.00
2023-03-06T05:25:50.330Z,7.60
2023-03-06T05:28:19.492Z,7.83
2023-03-06T05:33:40.982Z,9.50
2023-03-06T05:36:07.413Z,7.00
2023-03-06T05:38:33.822Z,8.00
2023-03-06T05:41:01.080Z,8.75
2023-03-06T05:43:28.311Z,7.25
2023-03-06T05:48:38.596Z,9.00
2023-03-06T05:51:04.988Z,6.00
2023-03-06T05:53:31.537Z,9.50
2023-03-06T05:55:59.838Z,8.00
2023-03-06T05:58:26.253Z,8.50
2023-03-06T06:03:47.731Z,18.00
2023-03-06T06:06:14.265Z,15.50
2023-03-06T06:08:40.703Z,16.00
2023-03-06T06:11:07.128Z,13.00
2023-03-06T06:13:34.555Z,19.67
2023-03-06T06:18:45.033Z,17.00
2023-03-06T06:21:11.492Z,15.00
2023-03-06T06:23:37.961Z,18.00
2023-03-06T06:26:04.429Z,17.00
2023-03-06T06:28:30.896Z,14.50
2023-03-06T06:33:53.035Z,21.00
2023-03-06T06:36:19.578Z,19.00
2023-03-06T06:38:46.973Z,16.33
2023-03-06T06:43:59.976Z,19.00
2023-03-06T06:49:11.269Z,17.50
2023-03-06T06:51:37.740Z,18.00
2023-03-06T06:54:05.100Z,11.67
2023-03-06T06:56:31.609Z,21.00
2023-03-06T06:59:14.002Z,19.00
2023-03-06T07:04:28.213Z,16.00
2023-03-06T07:06:55.598Z,16.67
2023-03-06T07:09:22.981Z,15.67
2023-03-06T07:11:50.402Z,13.67
2023-03-06T07:14:16.861Z,12.00
2023-03-06T07:19:38.744Z,13.00
2023-03-06T07:22:06.946Z,13.33
2023-03-06T07:24:33.749Z,19.00
2023-03-06T07:27:00.236Z,17.50
2023-03-06T07:29:26.708Z,17.50
2023-03-06T07:34:37.374Z,13.00
2023-03-06T07:37:03.800Z,15.00
2023-03-06T07:39:31.159Z,10.33
2023-03-06T07:41:57.629Z,16.00
2023-03-06T07:44:24.642Z,26.50
2023-03-06T07:49:37.348Z,25.67
2023-03-06T07:52:04.997Z,23.33
2023-03-06T07:54:32.649Z,20.67
2023-03-06T07:57:00.388Z,24.00
2023-03-06T07:59:26.861Z,19.00
2023-03-06T08:04:47.508Z,21.00
2023-03-06T08:07:15.590Z,21.00
2023-03-06T08:09:42.055Z,19.00
2023-03-06T08:12:08.536Z,19.00
2023-03-06T08:14:35.023Z,17.50
2023-03-06T08:19:46.514Z,17.50
2023-03-06T08:22:13.918Z,19.50
2023-03-06T08:24:41.118Z,18.50
2023-03-06T08:27:07.568Z,16.00
2023-03-06T08:29:34.068Z,17.50
2023-03-06T08:34:55.558Z,16.67
2023-03-06T08:37:22.054Z,15.00
2023-03-06T08:39:49.479Z,15.67
2023-03-06T08:42:16.847Z,15.40
2023-03-06T08:44:44.221Z,12.67
2023-03-06T08:50:04.803Z,13.50
2023-03-06T08:52:32.592Z,11.67
2023-03-06T08:54:59.041Z,13.50
2023-03-06T08:57:26.347Z,11.67
2023-03-06T08:59:53.624Z,9.67
2023-03-06T09:05:05.114Z,10.50
2023-03-06T09:07:31.569Z,10.00
2023-03-06T09:10:00.176Z,10.80
2023-03-06T09:12:27.248Z,9.00
2023-03-06T09:14:54.595Z,9.00
2023-03-06T09:17:21.069Z,8.50
2023-03-06T09:19:49.361Z,8.60
2023-03-06T09:22:15.846Z,9.50
2023-03-06T09:24:42.312Z,12.00
2023-03-06T09:27:09.566Z,10.00
2023-03-06T09:29:36.058Z,7.50
2023-03-06T09:32:02.590Z,9.50
2023-03-06T09:34:29.057Z,10.00
2023-03-06T09:36:57.431Z,7.00
2023-03-06T09:39:24.124Z,9.00
2023-03-06T09:41:50.581Z,10.00
2023-03-06T09:44:17.171Z,10.50
2023-03-06T09:46:43.648Z,9.00
2023-03-06T09:49:10.930Z,11.00
2023-03-06T09:51:38.265Z,11.67
2023-03-06T09:54:06.584Z,10.80
2023-03-06T09:56:33.068Z,10.00
2023-03-06T09:59:00.360Z,12.33
2023-03-06T10:01:26.852Z,7.50
2023-03-06T10:03:55.172Z,10.20
2023-03-06T10:06:22.672Z,11.33
2023-03-06T10:08:49.992Z,10.33
2023-03-06T10:11:18.271Z,10.60
2023-03-06T10:13:44.717Z,11.00
2023-03-06T10:16:13.114Z,10.20
2023-03-06T10:18:42.322Z,8.33
2023-03-06T10:21:18.787Z,10.67
2023-03-06T10:23:47.734Z,10.00
2023-03-06T10:26:16.068Z,8.60
2023-03-06T10:28:42.590Z,10.00
2023-03-06T10:31:11.794Z,8.83
2023-03-06T10:33:38.366Z,10.00
2023-03-06T10:38:51.523Z,9.00
2023-03-06T10:41:18.784Z,12.00
2023-03-06T10:43:47.106Z,9.80
2023-03-06T10:46:15.420Z,9.00
2023-03-06T10:48:42.412Z,8.00
2023-03-06T10:54:07.617Z,8.83
2023-03-06T10:56:34.169Z,10.00
2023-03-06T10:59:00.593Z,8.00
2023-03-06T11:01:27.007Z,8.00
2023-03-06T11:03:53.443Z,8.00
2023-03-06T11:09:04.015Z,9.00
2023-03-06T11:11:37.426Z,5.50
2023-03-06T11:14:04.460Z,8.00
2023-03-06T11:16:30.920Z,9.00
2023-03-06T11:18:57.455Z,9.00
2023-03-06T11:24:10.608Z,8.00
2023-03-06T11:26:39.771Z,9.00
2023-03-06T11:29:06.270Z,7.00
2023-03-06T11:31:32.870Z,9.00
2023-03-06T11:34:00.151Z,10.00
2023-03-06T11:39:25.056Z,9.83
2023-03-06T11:41:53.325Z,8.00
2023-03-06T11:44:20.743Z,13.00
2023-03-06T11:46:47.332Z,9.00
2023-03-06T11:49:13.762Z,10.00
2023-03-06T11:54:26.937Z,9.33
2023-03-06T11:56:53.333Z,8.50
2023-03-06T11:59:20.616Z,7.50
2023-03-06T12:01:47.075Z,9.50
2023-03-06T12:04:15.459Z,8.20
2023-03-06T12:09:30.795Z,10.60
2023-03-06T12:11:57.141Z,3.00
2023-03-06T12:14:26.333Z,9.50
2023-03-06T12:16:52.813Z,13.00
2023-03-06T12:19:20.200Z,13.00
2023-03-06T12:24:44.051Z,10.33
2023-03-06T12:27:10.503Z,10.00
2023-03-06T12:29:39.707Z,10.17
2023-03-06T12:32:08.174Z,10.00
2023-03-06T12:34:34.655Z,10.00
2023-03-06T12:39:45.964Z,10.00
2023-03-06T12:42:22.627Z,11.00
2023-03-06T12:44:50.052Z,7.00
2023-03-06T12:47:17.315Z,7.00
2023-03-06T12:49:43.731Z,6.00
2023-03-06T12:54:53.939Z,6.50
2023-03-06T12:57:20.494Z,6.00
2023-03-06T12:59:47.768Z,6.25
2023-03-06T13:02:14.242Z,8.00
2023-03-06T13:04:40.768Z,7.67
2023-03-06T13:09:51.452Z,6.00
2023-03-06T13:12:17.797Z,5.00
2023-03-06T13:14:53.928Z,5.67
2023-03-06T13:17:21.031Z,5.67
2023-03-06T13:19:47.362Z,6.00
2023-03-06T13:25:08.459Z,3.67
2023-03-06T13:27:34.932Z,6.00
2023-03-06T13:30:01.315Z,5.00
2023-03-06T13:32:27.794Z,5.00
2023-03-06T13:34:54.180Z,4.00
2023-03-06T13:40:04.866Z,5.33
2023-03-06T13:42:31.484Z,5.33
2023-03-06T13:44:58.609Z,7.00
2023-03-06T13:47:24.990Z,7.33
2023-03-06T13:49:51.314Z,3.00
2023-03-06T13:55:11.979Z,4.00
2023-03-06T13:57:38.413Z,5.00
2023-03-06T14:00:09.247Z,5.67
2023-03-06T14:02:36.275Z,5.67
2023-03-06T14:05:02.704Z,4.00
2023-03-06T14:10:12.982Z,6.00
2023-03-06T14:12:39.359Z,6.00
2023-03-06T14:15:05.783Z,5.33
2023-03-06T14:17:32.130Z,6.00
2023-03-06T14:19:59.580Z,8.00
2023-03-06T14:22:25.938Z,6.00
2023-03-06T14:24:52.291Z,5.00
2023-03-06T14:27:19.535Z,6.50
2023-03-06T14:29:45.872Z,6.00
2023-03-06T14:32:12.255Z,6.00
2023-03-06T14:34:38.684Z,5.33
2023-03-06T14:37:05.323Z,6.00
2023-03-06T14:39:31.782Z,6.00
2023-03-06T14:41:58.142Z,6.00
2023-03-06T14:44:25.442Z,6.75
2023-03-06T14:46:51.908Z,7.00
2023-03-06T14:49:18.373Z,7.00
2023-03-06T14:51:45.624Z,7.00
2023-03-06T14:54:11.999Z,7.00
2023-03-06T14:56:39.489Z,6.50
2023-03-06T14:59:05.860Z,7.00
2023-03-06T15:01:33.122Z,7.25
2023-03-06T15:03:59.539Z,6.00
2023-03-06T15:06:25.976Z,10.50
2023-03-06T15:08:52.502Z,8.50
2023-03-06T15:11:19.732Z,10.67
2023-03-06T15:13:46.171Z,15.00
2023-03-06T15:16:12.620Z,13.00
2023-03-06T15:18:39.133Z,12.50
2023-03-06T15:21:05.872Z,11.00
2023-03-06T15:23:32.371Z,10.00
2023-03-06T15:28:44.264Z,11.67
2023-03-06T15:31:11.535Z,10.67
2023-03-06T15:33:40.288Z,11.00
2023-03-06T15:36:09.467Z,10.67
2023-03-06T15:38:41.756Z,9.67
2023-03-06T15:44:06.738Z,8.20
2023-03-06T15:46:35.910Z,8.17
2023-03-06T15:49:03.152Z,9.00
2023-03-06T15:51:29.757Z,7.00
2023-03-06T15:54:09.778Z,7.50
2023-03-06T15:59:39.720Z,6.25
2023-03-06T16:02:06.130Z,5.67
2023-03-06T16:04:32.710Z,8.00
2023-03-06T16:07:01.934Z,7.50
2023-03-06T16:09:31.114Z,8.67
2023-03-06T16:11:58.367Z,9.33
2023-03-06T16:14:27.539Z,7.50
2023-03-06T16:16:56.791Z,8.00
2023-03-06T16:19:26.448Z,9.50
2023-03-06T16:21:53.566Z,8.00
2023-03-06T16:24:22.910Z,8.67
2023-03-06T16:29:36.079Z,9.00
2023-03-06T16:32:02.622Z,8.00
2023-03-06T16:34:29.127Z,9.00
2023-03-06T16:36:55.509Z,6.33
2023-03-06T16:39:21.981Z,9.00
2023-03-06T16:44:47.805Z,7.67
2023-03-06T16:47:17.016Z,8.67
2023-03-06T16:49:44.315Z,8.50
2023-03-06T16:52:11.577Z,11.33
2023-03-06T16:54:38.029Z,9.00
2023-03-06T17:00:04.342Z,10.50
2023-03-06T17:02:32.688Z,9.00
2023-03-06T17:04:59.165Z,7.00
2023-03-06T17:07:29.104Z,9.29
2023-03-06T17:09:56.395Z,11.67
2023-03-06T17:15:08.660Z,11.33
2023-03-06T17:17:35.954Z,13.67
2023-03-06T17:20:04.277Z,11.20
2023-03-06T17:22:31.733Z,11.33
2023-03-06T17:24:59.507Z,12.33
2023-03-06T17:30:12.312Z,11.67
2023-03-06T17:32:39.619Z,12.00
2023-03-06T17:35:06.115Z,11.00
2023-03-06T17:37:32.585Z,12.50
2023-03-06T17:40:00.041Z,16.33
2023-03-06T17:45:20.554Z,11.00
2023-03-06T17:47:49.076Z,15.00
2023-03-06T17:50:15.609Z,12.00
2023-03-06T17:52:42.046Z,13.00
2023-03-06T17:55:09.390Z,11.00
2023-03-06T18:00:20.005Z,10.50
2023-03-06T18:02:46.462Z,12.50
2023-03-06T18:05:13.893Z,11.33
2023-03-06T18:07:41.221Z,14.67
2023-03-06T18:10:08.548Z,12.67
2023-03-06T18:15:20.427Z,9.00
2023-03-06T18:17:49.632Z,9.50
2023-03-06T18:20:16.131Z,11.50
2023-03-06T18:22:42.558Z,11.50
2023-03-06T18:25:08.997Z,11.00
2023-03-06T18:30:30.473Z,13.00
2023-03-06T18:32:56.953Z,19.00
2023-03-06T18:35:24.403Z,24.00
2023-03-06T18:37:50.947Z,17.50
2023-03-06T18:40:18.339Z,19.00
2023-03-06T18:45:40.732Z,10.20
2023-03-06T18:48:08.537Z,14.33
2023-03-06T18:50:34.975Z,16.50
2023-03-06T18:53:02.353Z,15.00
2023-03-06T18:55:34.864Z,20.00
2023-03-06T19:00:52.915Z,16.00
2023-03-06T19:03:19.418Z,10.00
2023-03-06T19:05:51.875Z,16.00
2023-03-06T19:08:18.295Z,12.00
2023-03-06T19:10:44.740Z,16.00
2023-03-06T19:16:13.895Z,9.20
2023-03-06T19:18:43.571Z,13.00
2023-03-06T19:21:10.026Z,12.50
2023-03-06T19:23:37.385Z,12.67
2023-03-06T19:26:03.836Z,10.00
2023-03-06T19:31:14.304Z,15.00
2023-03-06T19:33:41.650Z,12.00
2023-03-06T19:36:09.540Z,13.00
2023-03-06T19:38:36.850Z,11.00
2023-03-06T19:41:03.312Z,10.00
2023-03-06T19:46:23.724Z,21.50
2023-03-06T19:48:51.092Z,13.33
2023-03-06T19:51:17.549Z,14.50
2023-03-06T19:53:43.997Z,12.00
2023-03-06T19:56:11.384Z,20.67
2023-03-06T20:01:32.566Z,14.00
2023-03-06T20:04:00.135Z,16.67
2023-03-06T20:06:26.653Z,17.00
2023-03-06T20:08:54.696Z,18.67
2023-03-06T20:11:22.101Z,13.00
2023-03-06T20:16:33.223Z,22.00
2023-03-06T20:18:59.685Z,21.00
2023-03-06T20:21:27.280Z,19.00
2023-03-06T20:23:53.777Z,19.00
2023-03-06T20:26:21.193Z,20.50
2023-03-06T20:31:31.998Z,16.00
2023-03-06T20:33:59.394Z,13.67
2023-03-06T20:36:26.814Z,15.33
2023-03-06T20:38:53.226Z,1.00
2023-03-06T20:41:20.027Z,12.00
2023-03-06T20:43:47.374Z,12.67
2023-03-06T20:46:14.763Z,11.00
2023-03-06T20:48:41.234Z,11.00
2023-03-06T20:51:07.695Z,10.00
2023-03-06T20:53:34.970Z,10.33
2023-03-06T20:56:02.251Z,11.33
2023-03-06T20:58:29.068Z,9.00
2023-03-06T21:00:55.466Z,9.00
2023-03-06T21:03:25.456Z,9.43
2023-03-06T21:05:51.921Z,8.00
2023-03-06T21:08:19.156Z,5.25
2023-03-06T21:10:47.450Z,9.00
2023-03-06T21:13:18.174Z,8.67
2023-03-06T21:15:44.915Z,7.00
2023-03-06T21:18:13.252Z,8.00
2023-03-06T21:20:42.449Z,7.67
2023-03-06T21:23:08.823Z,6.33
2023-03-06T21:25:35.243Z,7.00
2023-03-06T21:28:01.709Z,8.00
2023-03-06T21:30:31.084Z,5.67
2023-03-06T21:32:58.320Z,8.50
2023-03-06T21:35:24.671Z,5.00
2023-03-06T21:37:51.022Z,7.00
2023-03-06T21:40:18.280Z,8.25
2023-03-06T21:42:44.775Z,10.00
2023-03-06T21:45:11.242Z,15.00
2023-03-06T21:47:37.748Z,18.00
2023-03-06T21:50:04.227Z,19.00
2023-03-06T21:52:31.534Z,15.67
2023-03-06T21:54:58.923Z,13.33
2023-03-06T21:57:25.439Z,12.50
2023-03-06T21:59:51.878Z,12.00
2023-03-06T22:05:03.023Z,12.00
2023-03-06T22:07:31.351Z,11.00
2023-03-06T22:09:57.805Z,9.00
2023-03-06T22:12:24.164Z,3.33
2023-03-06T22:14:50.687Z,8.50
2023-03-06T22:20:01.437Z,9.00
2023-03-06T22:22:29.742Z,8.60
2023-03-06T22:24:56.180Z,7.50
2023-03-06T22:27:24.454Z,8.60
2023-03-06T22:29:50.777Z,4.67
2023-03-06T22:35:11.259Z,8.50
2023-03-06T22:37:39.613Z,9.80
2023-03-06T22:40:07.868Z,7.40
2023-03-06T22:42:34.267Z,8.00
2023-03-06T22:45:01.544Z,8.75
2023-03-06T22:50:12.223Z,9.00
2023-03-06T22:52:38.655Z,8.00
2023-03-06T22:55:05.085Z,8.00
2023-03-06T22:57:34.262Z,5.67
2023-03-06T23:00:03.426Z,8.17
2023-03-06T23:05:27.419Z,8.00
2023-03-06T23:07:58.302Z,8.67
2023-03-06T23:10:24.721Z,9.00
2023-03-06T23:12:53.885Z,7.67
2023-03-06T23:15:21.125Z,8.67
2023-03-06T23:20:43.535Z,9.00
2023-03-06T23:23:10.181Z,7.00
2023-03-06T23:25:38.492Z,9.60
2023-03-06T23:28:08.475Z,10.00
2023-03-06T23:30:34.956Z,9.00
2023-03-06T23:35:46.240Z,9.00
2023-03-06T23:38:13.616Z,9.33
2023-03-06T23:40:42.805Z,8.17
2023-03-06T23:43:11.099Z,9.60
2023-03-06T23:45:41.001Z,10.14
2023-03-06T23:50:54.390Z,10.00
2023-03-06T23:53:20.841Z,9.50
2023-03-06T23:55:49.205Z,10.20
2023-03-06T23:58:17.507Z,10.20
